sensor_id;sensor_type;location;lat;lon;timestamp;pressure;altitude;pressure_sealevel;temperature;humidity
83763;BME280;73753;53.724;0.040;2023-12-20T00:00:00;101500;;;6.0901;100.0
83763;BME280;73753;53.724;0.040;2023-12-20T00:01:01;101500;;;6.07268;100.0
83763;BME280;73753;53.724;0.040;2023-12-20T00:02:03;101500;;;6.08503;100.0
83763;BME280;73753;53.724;0.040;2023-12-20T00:03:04;101500;;;6.10752;100.0
83763;BME280;73753;53.724;0.040;2023-12-20T00:04:06;101500;;;6.11987;100.0
83763;BME280;73753;53.724;0.040;2023-12-20T00:05:08;101500;;;6.14172;100.0
83763;BME280;73753;53.724;0.040;2023-12-20T00:06:09;101500;;;6.15788;100.0
83763;BME280;73753;53.724;0.040;2023-12-20T00:07:11;101500;;;6.17308;100.0
83763;BME280;73753;53.724;0.040;2023-12-20T00:08:13;101500;;;6.17941;100.0
83763;BME280;73753;53.724;0.040;2023-12-20T00:09:14;101500;;;6.16199;100.0
83763;BME280;73753;53.724;0.040;2023-12-20T00:10:16;101500;;;6.18353;100.0
83763;BME280;73753;53.724;0.040;2023-12-20T00:11:17;101500;;;6.17751;100.0
83763;BME280;73753;53.724;0.040;2023-12-20T00:12:19;101500;;;6.15598;100.0
83763;BME280;73753;53.724;0.040;2023-12-20T00:13:20;101500;;;6.15439;100.0
83763;BME280;73753;53.724;0.040;2023-12-20T00:14:22;101500;;;6.14869;100.0
83763;BME280;73753;53.724;0.040;2023-12-20T00:15:23;101500;;;6.15914;100.0
83763;BME280;73753;53.724;0.040;2023-12-20T00:16:25;101500;;;6.1753;100.0
83763;BME280;73753;53.724;0.040;2023-12-20T00:17:26;101500;;;6.18068;100.0
83763;BME280;73753;53.724;0.040;2023-12-20T00:18:28;101500;;;6.18258;100.0
83763;BME280;73753;53.724;0.040;2023-12-20T00:19:29;101500;;;6.17625;100.0
83763;BME280;73753;53.724;0.040;2023-12-20T00:20:31;101500;;;6.14774;100.0
83763;BME280;73753;53.724;0.040;2023-12-20T00:21:32;101500;;;6.16706;100.0
83763;BME280;73753;53.724;0.040;2023-12-20T00:22:34;101500;;;6.15693;100.0
83763;BME280;73753;53.724;0.040;2023-12-20T00:23:36;101500;;;6.13729;100.0
83763;BME280;73753;53.724;0.040;2023-12-20T00:24:37;101500;;;6.1129;100.0
83763;BME280;73753;53.724;0.040;2023-12-20T00:25:39;101500;;;6.06223;100.0
83763;BME280;73753;53.724;0.040;2023-12-20T00:26:40;101500;;;6.03182;100.0
83763;BME280;73753;53.724;0.040;2023-12-20T00:27:42;101500;;;6.03119;100.0
83763;BME280;73753;53.724;0.040;2023-12-20T00:28:43;101500;;;6.01472;100.0
83763;BME280;73753;53.724;0.040;2023-12-20T00:29:45;101500;;;6.00142;100.0
83763;BME280;73753;53.724;0.040;2023-12-20T00:30:47;101500;;;5.96214;100.0
83763;BME280;73753;53.724;0.040;2023-12-20T00:31:48;101500;;;5.92825;100.0
83763;BME280;73753;53.724;0.040;2023-12-20T00:32:50;101500;;;5.90386;100.0
83763;BME280;73753;53.724;0.040;2023-12-20T00:33:52;101500;;;5.87156;100.0
83763;BME280;73753;53.724;0.040;2023-12-20T00:34:53;101500;;;5.83609;100.0
83763;BME280;73753;53.724;0.040;2023-12-20T00:35:55;101500;;;5.83133;100.0
83763;BME280;73753;53.724;0.040;2023-12-20T00:36:56;101500;;;5.8269;100.0
83763;BME280;73753;53.724;0.040;2023-12-20T00:37:58;101500;;;5.84844;100.0
83763;BME280;73753;53.724;0.040;2023-12-20T00:38:59;101500;;;5.85509;100.0
83763;BME280;73753;53.724;0.040;2023-12-20T00:40:01;101500;;;5.86174;100.0
83763;BME280;73753;53.724;0.040;2023-12-20T00:41:03;101500;;;5.87663;100.0
83763;BME280;73753;53.724;0.040;2023-12-20T00:42:04;101500;;;5.92192;100.0
83763;BME280;73753;53.724;0.040;2023-12-20T00:43:06;101500;;;5.95549;100.0
83763;BME280;73753;53.724;0.040;2023-12-20T00:44:07;101500;;;5.97481;100.0
83763;BME280;73753;53.724;0.040;2023-12-20T00:45:09;101500;;;5.97734;100.0
83763;BME280;73753;53.724;0.040;2023-12-20T00:46:11;101500;;;5.99001;100.0
83763;BME280;73753;53.724;0.040;2023-12-20T00:47:12;101500;;;6.01313;100.0
83763;BME280;73753;53.724;0.040;2023-12-20T00:48:14;101500;;;6.02739;100.0
83763;BME280;73753;53.724;0.040;2023-12-20T00:49:15;101500;;;6.04544;100.0
83763;BME280;73753;53.724;0.040;2023-12-20T00:50:17;101500;;;6.04227;100.0
83763;BME280;73753;53.724;0.040;2023-12-20T00:51:18;101500;;;6.07078;100.0
83763;BME280;73753;53.724;0.040;2023-12-20T00:52:20;101500;;;6.09453;100.0
83763;BME280;73753;53.724;0.040;2023-12-20T00:53:21;101500;;;6.10308;100.0
83763;BME280;73753;53.724;0.040;2023-12-20T00:54:23;101500;;;6.08946;100.0
83763;BME280;73753;53.724;0.040;2023-12-20T00:55:25;101500;;;6.07268;100.0
83763;BME280;73753;53.724;0.040;2023-12-20T00:56:26;101500;;;6.06508;100.0
83763;BME280;73753;53.724;0.040;2023-12-20T00:57:28;101500;;;6.06508;100.0
83763;BME280;73753;53.724;0.040;2023-12-20T00:58:29;101500;;;6.06666;100.0
83763;BME280;73753;53.724;0.040;2023-12-20T00:59:31;101400;;;6.05431;100.0
83763;BME280;73753;53.724;0.040;2023-12-20T01:00:32;101500;;;6.04671;100.0
83763;BME280;73753;53.724;0.040;2023-12-20T01:01:34;101500;;;6.07933;100.0
83763;BME280;73753;53.724;0.040;2023-12-20T01:02:35;101500;;;6.07141;100.0
83763;BME280;73753;53.724;0.040;2023-12-20T01:03:37;101500;;;6.06603;100.0
83763;BME280;73753;53.724;0.040;2023-12-20T01:04:38;101400;;;6.08218;100.0
83763;BME280;73753;53.724;0.040;2023-12-20T01:05:40;101400;;;6.07806;100.0
83763;BME280;73753;53.724;0.040;2023-12-20T01:06:41;101400;;;6.08123;100.0
83763;BME280;73753;53.724;0.040;2023-12-20T01:07:43;101400;;;6.0882;100.0
83763;BME280;73753;53.724;0.040;2023-12-20T01:08:45;101500;;;6.09928;100.0
83763;BME280;73753;53.724;0.040;2023-12-20T01:09:46;101400;;;6.11259;100.0
83763;BME280;73753;53.724;0.040;2023-12-20T01:10:48;101400;;;6.1129;100.0
83763;BME280;73753;53.724;0.040;2023-12-20T01:11:49;101400;;;6.12494;100.0
83763;BME280;73753;53.724;0.040;2023-12-20T01:12:51;101400;;;6.14838;100.0
83763;BME280;73753;53.724;0.040;2023-12-20T01:13:53;101500;;;6.15313;100.0
83763;BME280;73753;53.724;0.040;2023-12-20T01:14:54;101400;;;6.15186;100.0
83763;BME280;73753;53.724;0.040;2023-12-20T01:15:56;101500;;;6.13919;100.0
83763;BME280;73753;53.724;0.040;2023-12-20T01:16:57;101500;;;6.15978;100.0
83763;BME280;73753;53.724;0.040;2023-12-20T01:17:59;101500;;;6.15059;100.0
83763;BME280;73753;53.724;0.040;2023-12-20T01:19:00;101500;;;6.15154;100.0
83763;BME280;73753;53.724;0.040;2023-12-20T01:20:02;101500;;;6.13127;100.0
83763;BME280;73753;53.724;0.040;2023-12-20T01:21:04;101500;;;6.12399;100.0
83763;BME280;73753;53.724;0.040;2023-12-20T01:22:05;101500;;;6.10055;100.0
83763;BME280;73753;53.724;0.040;2023-12-20T01:23:07;101500;;;6.12842;100.0
83763;BME280;73753;53.724;0.040;2023-12-20T01:24:08;101500;;;6.12494;100.0
83763;BME280;73753;53.724;0.040;2023-12-20T01:25:10;101500;;;6.10562;100.0
83763;BME280;73753;53.724;0.040;2023-12-20T01:26:11;101500;;;6.09992;100.0
83763;BME280;73753;53.724;0.040;2023-12-20T01:27:13;101500;;;6.0996;100.0
83763;BME280;73753;53.724;0.040;2023-12-20T01:28:15;101500;;;6.10498;100.0
83763;BME280;73753;53.724;0.040;2023-12-20T01:29:17;101500;;;6.10498;100.0
83763;BME280;73753;53.724;0.040;2023-12-20T01:30:18;101500;;;6.10974;100.0
83763;BME280;73753;53.724;0.040;2023-12-20T01:31:20;101500;;;6.0958;100.0
83763;BME280;73753;53.724;0.040;2023-12-20T01:32:21;101500;;;6.11417;100.0
83763;BME280;73753;53.724;0.040;2023-12-20T01:33:24;101500;;;6.13096;100.0
83763;BME280;73753;53.724;0.040;2023-12-20T01:34:25;101400;;;6.13729;100.0
83763;BME280;73753;53.724;0.040;2023-12-20T01:35:27;101400;;;6.1148;100.0
83763;BME280;73753;53.724;0.040;2023-12-20T01:36:28;101400;;;6.08915;100.0
83763;BME280;73753;53.724;0.040;2023-12-20T01:37:30;101400;;;6.08281;100.0
83763;BME280;73753;53.724;0.040;2023-12-20T01:38:31;101400;;;6.08566;100.0
83763;BME280;73753;53.724;0.040;2023-12-20T01:39:33;101400;;;6.07458;100.0
83763;BME280;73753;53.724;0.040;2023-12-20T01:40:35;101400;;;6.06318;100.0
83763;BME280;73753;53.724;0.040;2023-12-20T01:41:36;101400;;;6.05241;100.0
83763;BME280;73753;53.724;0.040;2023-12-20T01:42:38;101400;;;6.06033;100.0
83763;BME280;73753;53.724;0.040;2023-12-20T01:43:39;101400;;;6.05779;100.0
83763;BME280;73753;53.724;0.040;2023-12-20T01:44:41;101400;;;6.09358;100.0
83763;BME280;73753;53.724;0.040;2023-12-20T01:45:42;101400;;;6.11417;100.0
83763;BME280;73753;53.724;0.040;2023-12-20T01:46:44;101400;;;6.12684;100.0
83763;BME280;73753;53.724;0.040;2023-12-20T01:47:46;101400;;;6.14521;100.0
83763;BME280;73753;53.724;0.040;2023-12-20T01:48:48;101400;;;6.14838;100.0
83763;BME280;73753;53.724;0.040;2023-12-20T01:49:50;101400;;;6.14489;100.0
83763;BME280;73753;53.724;0.040;2023-12-20T01:50:51;101400;;;6.14362;100.0
83763;BME280;73753;53.724;0.040;2023-12-20T01:51:53;101400;;;6.15851;100.0
83763;BME280;73753;53.724;0.040;2023-12-20T01:52:55;101400;;;6.19969;100.0
83763;BME280;73753;53.724;0.040;2023-12-20T01:53:58;101400;;;6.22819;100.0
83763;BME280;73753;53.724;0.040;2023-12-20T01:55:00;101400;;;6.23167;100.0
83763;BME280;73753;53.724;0.040;2023-12-20T01:56:02;101400;;;6.22692;100.0
83763;BME280;73753;53.724;0.040;2023-12-20T01:57:05;101400;;;6.21837;100.0
83763;BME280;73753;53.724;0.040;2023-12-20T01:58:08;101400;;;6.22091;100.0
83763;BME280;73753;53.724;0.040;2023-12-20T01:59:10;101400;;;6.22882;100.0
83763;BME280;73753;53.724;0.040;2023-12-20T02:00:12;101400;;;6.22217;100.0
83763;BME280;73753;53.724;0.040;2023-12-20T02:01:14;101400;;;6.25986;100.0
83763;BME280;73753;53.724;0.040;2023-12-20T02:02:16;101400;;;6.28235;100.0
83763;BME280;73753;53.724;0.040;2023-12-20T02:03:18;101400;;;6.29312;100.0
83763;BME280;73753;53.724;0.040;2023-12-20T02:04:20;101400;;;6.30927;100.0
83763;BME280;73753;53.724;0.040;2023-12-20T02:05:21;101400;;;6.29375;100.0
83763;BME280;73753;53.724;0.040;2023-12-20T02:06:23;101400;;;6.30135;100.0
83763;BME280;73753;53.724;0.040;2023-12-20T02:07:26;101400;;;6.30325;100.0
83763;BME280;73753;53.724;0.040;2023-12-20T02:08:28;101400;;;6.31846;100.0
83763;BME280;73753;53.724;0.040;2023-12-20T02:09:29;101400;;;6.32891;100.0
83763;BME280;73753;53.724;0.040;2023-12-20T02:10:31;101400;;;6.31054;100.0
83763;BME280;73753;53.724;0.040;2023-12-20T02:11:32;101400;;;6.29185;100.0
83763;BME280;73753;53.724;0.040;2023-12-20T02:12:34;101400;;;6.29027;100.0
83763;BME280;73753;53.724;0.040;2023-12-20T02:13:36;101400;;;6.27443;100.0
83763;BME280;73753;53.724;0.040;2023-12-20T02:14:37;101400;;;6.24086;100.0
83763;BME280;73753;53.724;0.040;2023-12-20T02:15:39;101400;;;6.23896;100.0
83763;BME280;73753;53.724;0.040;2023-12-20T02:16:40;101400;;;6.22122;100.0
83763;BME280;73753;53.724;0.040;2023-12-20T02:17:43;101400;;;6.23548;100.0
83763;BME280;73753;53.724;0.040;2023-12-20T02:18:45;101400;;;6.23453;100.0
83763;BME280;73753;53.724;0.040;2023-12-20T02:19:46;101400;;;6.21362;100.0
83763;BME280;73753;53.724;0.040;2023-12-20T02:20:48;101400;;;6.18385;100.0
83763;BME280;73753;53.724;0.040;2023-12-20T02:21:49;101400;;;6.17751;100.0
83763;BME280;73753;53.724;0.040;2023-12-20T02:22:51;101400;;;6.17751;100.0
83763;BME280;73753;53.724;0.040;2023-12-20T02:23:53;101400;;;6.1696;100.0
83763;BME280;73753;53.724;0.040;2023-12-20T02:24:54;101400;;;6.14141;100.0
83763;BME280;73753;53.724;0.040;2023-12-20T02:25:56;101400;;;6.14331;100.0
83763;BME280;73753;53.724;0.040;2023-12-20T02:26:57;101400;;;6.14299;100.0
83763;BME280;73753;53.724;0.040;2023-12-20T02:27:59;101400;;;6.15503;100.0
83763;BME280;73753;53.724;0.040;2023-12-20T02:29:01;101400;;;6.17403;100.0
83763;BME280;73753;53.724;0.040;2023-12-20T02:30:03;101400;;;6.18227;100.0
83763;BME280;73753;53.724;0.040;2023-12-20T02:31:05;101400;;;6.19715;100.0
83763;BME280;73753;53.724;0.040;2023-12-20T02:32:07;101400;;;6.18828;100.0
83763;BME280;73753;53.724;0.040;2023-12-20T02:33:10;101400;;;6.22502;100.0
83763;BME280;73753;53.724;0.040;2023-12-20T02:34:12;101400;;;6.25099;100.0
83763;BME280;73753;53.724;0.040;2023-12-20T02:35:13;101400;;;6.26683;100.0
83763;BME280;73753;53.724;0.040;2023-12-20T02:36:15;101400;;;6.28932;100.0
83763;BME280;73753;53.724;0.040;2023-12-20T02:37:16;101400;;;6.29787;100.0
83763;BME280;73753;53.724;0.040;2023-12-20T02:38:18;101400;;;6.29344;100.0
83763;BME280;73753;53.724;0.040;2023-12-20T02:39:20;101400;;;6.29755;100.0
83763;BME280;73753;53.724;0.040;2023-12-20T02:40:22;101400;;;6.31339;100.0
83763;BME280;73753;53.724;0.040;2023-12-20T02:41:23;101400;;;6.32986;100.0
83763;BME280;73753;53.724;0.040;2023-12-20T02:42:25;101400;;;6.34063;100.0
83763;BME280;73753;53.724;0.040;2023-12-20T02:43:26;101400;;;6.33714;100.0
83763;BME280;73753;53.724;0.040;2023-12-20T02:44:28;101400;;;6.33651;100.0
83763;BME280;73753;53.724;0.040;2023-12-20T02:45:29;101400;;;6.35646;100.0
83763;BME280;73753;53.724;0.040;2023-12-20T02:46:31;101400;;;6.35805;100.0
83763;BME280;73753;53.724;0.040;2023-12-20T02:47:33;101400;;;6.37167;100.0
83763;BME280;73753;53.724;0.040;2023-12-20T02:48:34;101400;;;6.378;100.0
83763;BME280;73753;53.724;0.040;2023-12-20T02:49:36;101400;;;6.38339;100.0
83763;BME280;73753;53.724;0.040;2023-12-20T02:50:37;101400;;;6.38909;100.0
83763;BME280;73753;53.724;0.040;2023-12-20T02:51:39;101400;;;6.39352;100.0
83763;BME280;73753;53.724;0.040;2023-12-20T02:52:41;101400;;;6.37769;100.0
83763;BME280;73753;53.724;0.040;2023-12-20T02:53:42;101400;;;6.38624;100.0
83763;BME280;73753;53.724;0.040;2023-12-20T02:54:44;101400;;;6.37959;100.0
83763;BME280;73753;53.724;0.040;2023-12-20T02:55:45;101400;;;6.38307;100.0
83763;BME280;73753;53.724;0.040;2023-12-20T02:56:47;101400;;;6.36913;100.0
83763;BME280;73753;53.724;0.040;2023-12-20T02:57:48;101400;;;6.37483;100.0
83763;BME280;73753;53.724;0.040;2023-12-20T02:58:50;101400;;;6.37547;100.0
83763;BME280;73753;53.724;0.040;2023-12-20T02:59:51;101400;;;6.37895;100.0
83763;BME280;73753;53.724;0.040;2023-12-20T03:00:53;101400;;;6.35741;100.0
83763;BME280;73753;53.724;0.040;2023-12-20T03:01:54;101400;;;6.39035;100.0
83763;BME280;73753;53.724;0.040;2023-12-20T03:02:56;101400;;;6.40017;100.0
83763;BME280;73753;53.724;0.040;2023-12-20T03:03:57;101400;;;6.40144;100.0
83763;BME280;73753;53.724;0.040;2023-12-20T03:04:59;101400;;;6.40777;100.0
83763;BME280;73753;53.724;0.040;2023-12-20T03:06:01;101400;;;6.40461;100.0
83763;BME280;73753;53.724;0.040;2023-12-20T03:07:02;101400;;;6.40777;100.0
83763;BME280;73753;53.724;0.040;2023-12-20T03:08:04;101400;;;6.38149;100.0
83763;BME280;73753;53.724;0.040;2023-12-20T03:09:06;101400;;;6.3685;100.0
83763;BME280;73753;53.724;0.040;2023-12-20T03:10:07;101400;;;6.36913;100.0
83763;BME280;73753;53.724;0.040;2023-12-20T03:11:09;101400;;;6.36977;100.0
83763;BME280;73753;53.724;0.040;2023-12-20T03:12:11;101400;;;6.36913;100.0
83763;BME280;73753;53.724;0.040;2023-12-20T03:13:13;101400;;;6.35235;100.0
83763;BME280;73753;53.724;0.040;2023-12-20T03:14:14;101400;;;6.3495;100.0
83763;BME280;73753;53.724;0.040;2023-12-20T03:15:16;101400;;;6.34918;100.0
83763;BME280;73753;53.724;0.040;2023-12-20T03:16:17;101400;;;6.35741;100.0
83763;BME280;73753;53.724;0.040;2023-12-20T03:17:19;101400;;;6.32669;100.0
83763;BME280;73753;53.724;0.040;2023-12-20T03:18:20;101400;;;6.33366;100.0
83763;BME280;73753;53.724;0.040;2023-12-20T03:19:22;101400;;;6.34126;100.0
83763;BME280;73753;53.724;0.040;2023-12-20T03:20:23;101400;;;6.34095;100.0
83763;BME280;73753;53.724;0.040;2023-12-20T03:21:25;101400;;;6.34918;100.0
83763;BME280;73753;53.724;0.040;2023-12-20T03:22:27;101400;;;6.36787;100.0
83763;BME280;73753;53.724;0.040;2023-12-20T03:23:28;101400;;;6.3742;100.0
83763;BME280;73753;53.724;0.040;2023-12-20T03:24:30;101400;;;6.37262;100.0
83763;BME280;73753;53.724;0.040;2023-12-20T03:25:32;101400;;;6.35361;100.0
83763;BME280;73753;53.724;0.040;2023-12-20T03:26:33;101400;;;6.35678;100.0
83763;BME280;73753;53.724;0.040;2023-12-20T03:27:36;101400;;;6.36565;100.0
83763;BME280;73753;53.724;0.040;2023-12-20T03:28:38;101400;;;6.37642;100.0
83763;BME280;73753;53.724;0.040;2023-12-20T03:29:39;101400;;;6.34348;100.0
83763;BME280;73753;53.724;0.040;2023-12-20T03:30:41;101300;;;6.35076;100.0
83763;BME280;73753;53.724;0.040;2023-12-20T03:31:42;101300;;;6.37008;100.0
83763;BME280;73753;53.724;0.040;2023-12-20T03:32:44;101400;;;6.3571;100.0
83763;BME280;73753;53.724;0.040;2023-12-20T03:33:46;101300;;;6.36755;100.0
83763;BME280;73753;53.724;0.040;2023-12-20T03:34:47;101300;;;6.37959;100.0
83763;BME280;73753;53.724;0.040;2023-12-20T03:35:49;101300;;;6.38845;100.0
83763;BME280;73753;53.724;0.040;2023-12-20T03:36:50;101300;;;6.39859;100.0
83763;BME280;73753;53.724;0.040;2023-12-20T03:37:52;101300;;;6.38497;100.0
83763;BME280;73753;53.724;0.040;2023-12-20T03:38:53;101300;;;6.37293;100.0
83763;BME280;73753;53.724;0.040;2023-12-20T03:39:55;101300;;;6.37198;100.0
83763;BME280;73753;53.724;0.040;2023-12-20T03:40:56;101300;;;6.38529;100.0
83763;BME280;73753;53.724;0.040;2023-12-20T03:41:58;101300;;;6.41443;100.0
83763;BME280;73753;53.724;0.040;2023-12-20T03:42:59;101400;;;6.42424;100.0
83763;BME280;73753;53.724;0.040;2023-12-20T03:44:01;101300;;;6.42488;100.0
83763;BME280;73753;53.724;0.040;2023-12-20T03:45:02;101300;;;6.44451;100.0
83763;BME280;73753;53.724;0.040;2023-12-20T03:46:04;101300;;;6.4727;100.0
83763;BME280;73753;53.724;0.040;2023-12-20T03:47:05;101400;;;6.48981;100.0
83763;BME280;73753;53.724;0.040;2023-12-20T03:48:07;101400;;;6.48252;100.0
83763;BME280;73753;53.724;0.040;2023-12-20T03:49:09;101400;;;6.49361;100.0
83763;BME280;73753;53.724;0.040;2023-12-20T03:50:11;101400;;;6.49994;100.0
83763;BME280;73753;53.724;0.040;2023-12-20T03:51:12;101400;;;6.50311;100.0
83763;BME280;73753;53.724;0.040;2023-12-20T03:52:14;101400;;;6.54618;100.0
83763;BME280;73753;53.724;0.040;2023-12-20T03:53:15;101400;;;6.58007;100.0
83763;BME280;73753;53.724;0.040;2023-12-20T03:54:17;101300;;;6.58894;100.0
83763;BME280;73753;53.724;0.040;2023-12-20T03:55:18;101400;;;6.59591;100.0
83763;BME280;73753;53.724;0.040;2023-12-20T03:56:20;101300;;;6.60319;100.0
83763;BME280;73753;53.724;0.040;2023-12-20T03:57:21;101300;;;6.57881;100.0
83763;BME280;73753;53.724;0.040;2023-12-20T03:58:23;101300;;;6.57754;100.0
83763;BME280;73753;53.724;0.040;2023-12-20T03:59:24;101300;;;6.58229;100.0
83763;BME280;73753;53.724;0.040;2023-12-20T04:00:26;101300;;;6.59243;100.0
83763;BME280;73753;53.724;0.040;2023-12-20T04:01:27;101400;;;6.61903;100.0
83763;BME280;73753;53.724;0.040;2023-12-20T04:02:29;101400;;;6.61871;100.0
83763;BME280;73753;53.724;0.040;2023-12-20T04:03:30;101400;;;6.63582;100.0
83763;BME280;73753;53.724;0.040;2023-12-20T04:04:32;101300;;;6.63518;100.0
83763;BME280;73753;53.724;0.040;2023-12-20T04:05:33;101300;;;6.61808;100.0
83763;BME280;73753;53.724;0.040;2023-12-20T04:06:35;101300;;;6.63677;100.0
83763;BME280;73753;53.724;0.040;2023-12-20T04:07:36;101300;;;6.62283;100.0
83763;BME280;73753;53.724;0.040;2023-12-20T04:08:38;101400;;;6.63328;100.0
83763;BME280;73753;53.724;0.040;2023-12-20T04:09:41;101400;;;6.66622;100.0
83763;BME280;73753;53.724;0.040;2023-12-20T04:10:42;101400;;;6.69695;100.0
83763;BME280;73753;53.724;0.040;2023-12-20T04:11:44;101300;;;6.715;100.0
83763;BME280;73753;53.724;0.040;2023-12-20T04:12:45;101300;;;6.70993;100.0
83763;BME280;73753;53.724;0.040;2023-12-20T04:13:47;101300;;;6.73812;100.0
83763;BME280;73753;53.724;0.040;2023-12-20T04:14:48;101300;;;6.75142;100.0
83763;BME280;73753;53.724;0.040;2023-12-20T04:15:50;101300;;;6.75427;100.0
83763;BME280;73753;53.724;0.040;2023-12-20T04:16:52;101300;;;6.74826;100.0
83763;BME280;73753;53.724;0.040;2023-12-20T04:17:53;101300;;;6.76124;100.0
83763;BME280;73753;53.724;0.040;2023-12-20T04:18:55;101300;;;6.75681;100.0
83763;BME280;73753;53.724;0.040;2023-12-20T04:19:56;101300;;;6.75142;100.0
83763;BME280;73753;53.724;0.040;2023-12-20T04:20:58;101400;;;6.7226;100.0
83763;BME280;73753;53.724;0.040;2023-12-20T04:22:00;101400;;;6.71373;100.0
83763;BME280;73753;53.724;0.040;2023-12-20T04:23:01;101400;;;6.734;100.0
83763;BME280;73753;53.724;0.040;2023-12-20T04:24:03;101400;;;6.7226;100.0
83763;BME280;73753;53.724;0.040;2023-12-20T04:25:04;101400;;;6.71912;100.0
83763;BME280;73753;53.724;0.040;2023-12-20T04:26:06;101400;;;6.72292;100.0
83763;BME280;73753;53.724;0.040;2023-12-20T04:27:07;101400;;;6.73527;100.0
83763;BME280;73753;53.724;0.040;2023-12-20T04:28:09;101400;;;6.74287;100.0
83763;BME280;73753;53.724;0.040;2023-12-20T04:29:11;101400;;;6.7359;100.0
83763;BME280;73753;53.724;0.040;2023-12-20T04:30:13;101400;;;6.74667;100.0
83763;BME280;73753;53.724;0.040;2023-12-20T04:31:15;101400;;;6.75237;100.0
83763;BME280;73753;53.724;0.040;2023-12-20T04:32:16;101400;;;6.75966;100.0
83763;BME280;73753;53.724;0.040;2023-12-20T04:33:18;101400;;;6.76409;100.0
83763;BME280;73753;53.724;0.040;2023-12-20T04:34:19;101400;;;6.77993;100.0
83763;BME280;73753;53.724;0.040;2023-12-20T04:35:21;101400;;;6.77138;100.0
83763;BME280;73753;53.724;0.040;2023-12-20T04:36:22;101400;;;6.78341;100.0
83763;BME280;73753;53.724;0.040;2023-12-20T04:37:24;101400;;;6.80875;100.0
83763;BME280;73753;53.724;0.040;2023-12-20T04:38:25;101400;;;6.82997;100.0
83763;BME280;73753;53.724;0.040;2023-12-20T04:39:27;101400;;;6.83377;100.0
83763;BME280;73753;53.724;0.040;2023-12-20T04:40:28;101400;;;6.84232;100.0
83763;BME280;73753;53.724;0.040;2023-12-20T04:41:30;101400;;;6.88065;100.0
83763;BME280;73753;53.724;0.040;2023-12-20T04:42:31;101400;;;6.87811;100.0
83763;BME280;73753;53.724;0.040;2023-12-20T04:43:33;101400;;;6.8816;100.0
83763;BME280;73753;53.724;0.040;2023-12-20T04:44:34;101400;;;6.89458;100.0
83763;BME280;73753;53.724;0.040;2023-12-20T04:45:36;101400;;;6.90599;100.0
83763;BME280;73753;53.724;0.040;2023-12-20T04:46:38;101400;;;6.94146;100.0
83763;BME280;73753;53.724;0.040;2023-12-20T04:47:39;101400;;;6.93988;100.0
83763;BME280;73753;53.724;0.040;2023-12-20T04:48:41;101400;;;6.94969;100.0
83763;BME280;73753;53.724;0.040;2023-12-20T04:49:42;101400;;;6.95381;100.0
83763;BME280;73753;53.724;0.040;2023-12-20T04:50:44;101400;;;6.94589;100.0
83763;BME280;73753;53.724;0.040;2023-12-20T04:51:45;101400;;;6.94653;100.0
83763;BME280;73753;53.724;0.040;2023-12-20T04:52:47;101400;;;6.96743;100.0
83763;BME280;73753;53.724;0.040;2023-12-20T04:53:48;101400;;;7.00037;100.0
83763;BME280;73753;53.724;0.040;2023-12-20T04:54:50;101400;;;6.99594;100.0
83763;BME280;73753;53.724;0.040;2023-12-20T04:55:51;101400;;;7.01779;100.0
83763;BME280;73753;53.724;0.040;2023-12-20T04:56:53;101400;;;7.01019;100.0
83763;BME280;73753;53.724;0.040;2023-12-20T04:57:54;101400;;;7.00829;100.0
83763;BME280;73753;53.724;0.040;2023-12-20T04:58:56;101400;;;7.03901;100.0
83763;BME280;73753;53.724;0.040;2023-12-20T04:59:57;101400;;;7.05833;100.0
83763;BME280;73753;53.724;0.040;2023-12-20T05:00:59;101400;;;7.08335;100.0
83763;BME280;73753;53.724;0.040;2023-12-20T05:02:01;101400;;;7.08715;100.0
83763;BME280;73753;53.724;0.040;2023-12-20T05:03:02;101400;;;7.10933;100.0
83763;BME280;73753;53.724;0.040;2023-12-20T05:04:04;101400;;;7.09096;100.0
83763;BME280;73753;53.724;0.040;2023-12-20T05:05:06;101400;;;7.09412;100.0
83763;BME280;73753;53.724;0.040;2023-12-20T05:06:09;101300;;;7.08019;100.0
83763;BME280;73753;53.724;0.040;2023-12-20T05:07:10;101300;;;7.06372;100.0
83763;BME280;73753;53.724;0.040;2023-12-20T05:08:12;101300;;;7.05802;100.0
83763;BME280;73753;53.724;0.040;2023-12-20T05:09:13;101300;;;7.05675;100.0
83763;BME280;73753;53.724;0.040;2023-12-20T05:10:15;101300;;;7.06277;100.0
83763;BME280;73753;53.724;0.040;2023-12-20T05:11:17;101300;;;7.10838;100.0
83763;BME280;73753;53.724;0.040;2023-12-20T05:12:18;101300;;;7.10267;100.0
83763;BME280;73753;53.724;0.040;2023-12-20T05:13:20;101300;;;7.10362;100.0
83763;BME280;73753;53.724;0.040;2023-12-20T05:14:22;101300;;;7.11661;100.0
83763;BME280;73753;53.724;0.040;2023-12-20T05:15:23;101300;;;7.13276;100.0
83763;BME280;73753;53.724;0.040;2023-12-20T05:16:25;101300;;;7.12453;100.0
83763;BME280;73753;53.724;0.040;2023-12-20T05:17:26;101300;;;7.13593;100.0
83763;BME280;73753;53.724;0.040;2023-12-20T05:18:28;101300;;;7.12295;100.0
83763;BME280;73753;53.724;0.040;2023-12-20T05:19:29;101300;;;7.13118;100.0
83763;BME280;73753;53.724;0.040;2023-12-20T05:20:31;101300;;;7.12073;100.0
83763;BME280;73753;53.724;0.040;2023-12-20T05:21:32;101300;;;7.11439;100.0
83763;BME280;73753;53.724;0.040;2023-12-20T05:22:34;101300;;;7.10046;100.0
83763;BME280;73753;53.724;0.040;2023-12-20T05:23:35;101300;;;7.08906;100.0
83763;BME280;73753;53.724;0.040;2023-12-20T05:24:37;101300;;;7.08399;100.0
83763;BME280;73753;53.724;0.040;2023-12-20T05:25:38;101300;;;7.10141;100.0